広州 の空港の天気 - METARとTAF

広州白雲国際空港 ( ZGGG / CAN ) - 中国 広東省広州市
飛行場実況気象(Metar)
観測時間09/16 11:00 CST (09/16 03:00 UTC)
風向・風速東 2m/s
視程10km以上
天気現象
なし
気温30℃
湿度70%
気圧1009hPa
METARZGGG 160300Z 09002MPS 050V120 CAVOK 30/24 Q1009 NOSIG
過去の天気等 Google飛行場航空写真 Wunderground天気予報

過去48時間のMETAR

飛行場予報(TAF)
発表時間: 9/16 05:03 CST (9/15 21:03 UTC)
予報対象時間: 16日8時 CST ~ 17日8時 CST
風向・風速東北東 3m/s
視程8000m
全天の4割程度の雲 雲底高度 1220m
16日14時 CST ~ 16日20時 CST に一時的に
視程2000m
天気現象雷雨
全天の4割程度の雲 雲底高度 240m
全天の4割程度の積乱雲 雲底高度 910m
全天の8割程度の雲 雲底高度 1010m
TAF ZGGG 152103Z 1600/1624 06003MPS 8000 SCT040 TX34/1607Z TN27/1622Z
TEMPO 1606/1612 2000 TSRA SCT008 SCT030CB BKN033